sensor_id;sensor_type;location;lat;lon;timestamp;P1;durP1;ratioP1;P2;durP2;ratioP2
3175;SDS011;1599;51.564;6.990;2024-02-14T00:00:15;3.67;;;0.50;;
3175;SDS011;1599;51.564;6.990;2024-02-14T00:02:44;3.80;;;0.50;;
3175;SDS011;1599;51.564;6.990;2024-02-14T00:05:14;3.70;;;0.50;;
3175;SDS011;1599;51.564;6.990;2024-02-14T00:07:40;3.70;;;0.50;;
3175;SDS011;1599;51.564;6.990;2024-02-14T00:10:06;3.60;;;0.50;;
3175;SDS011;1599;51.564;6.990;2024-02-14T00:12:33;3.60;;;0.50;;
3175;SDS011;1599;51.564;6.990;2024-02-14T00:15:00;3.57;;;0.50;;
3175;SDS011;1599;51.564;6.990;2024-02-14T00:17:28;3.53;;;0.50;;
3175;SDS011;1599;51.564;6.990;2024-02-14T00:19:54;3.50;;;0.50;;
3175;SDS011;1599;51.564;6.990;2024-02-14T00:22:20;3.33;;;0.50;;
3175;SDS011;1599;51.564;6.990;2024-02-14T00:24:46;3.30;;;0.50;;
3175;SDS011;1599;51.564;6.990;2024-02-14T00:27:12;3.10;;;0.50;;
3175;SDS011;1599;51.564;6.990;2024-02-14T00:29:39;3.03;;;0.50;;
3175;SDS011;1599;51.564;6.990;2024-02-14T00:32:05;3.00;;;0.50;;
3175;SDS011;1599;51.564;6.990;2024-02-14T00:34:31;2.90;;;0.50;;
3175;SDS011;1599;51.564;6.990;2024-02-14T00:36:57;2.80;;;0.50;;
3175;SDS011;1599;51.564;6.990;2024-02-14T00:39:23;2.77;;;0.50;;
3175;SDS011;1599;51.564;6.990;2024-02-14T00:41:49;2.77;;;0.50;;
3175;SDS011;1599;51.564;6.990;2024-02-14T00:44:17;2.77;;;0.50;;
3175;SDS011;1599;51.564;6.990;2024-02-14T00:46:43;2.80;;;0.50;;
3175;SDS011;1599;51.564;6.990;2024-02-14T00:49:09;2.80;;;0.50;;
3175;SDS011;1599;51.564;6.990;2024-02-14T00:51:36;2.77;;;0.50;;
3175;SDS011;1599;51.564;6.990;2024-02-14T00:54:05;2.70;;;0.50;;
3175;SDS011;1599;51.564;6.990;2024-02-14T00:56:32;2.60;;;0.50;;
3175;SDS011;1599;51.564;6.990;2024-02-14T00:58:57;2.60;;;0.50;;
3175;SDS011;1599;51.564;6.990;2024-02-14T01:01:24;2.63;;;0.50;;
3175;SDS011;1599;51.564;6.990;2024-02-14T01:03:50;2.60;;;0.50;;
3175;SDS011;1599;51.564;6.990;2024-02-14T01:06:16;2.53;;;0.50;;
3175;SDS011;1599;51.564;6.990;2024-02-14T01:08:43;2.53;;;0.50;;
3175;SDS011;1599;51.564;6.990;2024-02-14T01:11:09;7.43;;;0.60;;
3175;SDS011;1599;51.564;6.990;2024-02-14T01:13:35;6.20;;;0.50;;
3175;SDS011;1599;51.564;6.990;2024-02-14T01:16:01;5.70;;;0.60;;
3175;SDS011;1599;51.564;6.990;2024-02-14T01:18:29;1.20;;;0.40;;
3175;SDS011;1599;51.564;6.990;2024-02-14T01:20:55;1.20;;;0.40;;
3175;SDS011;1599;51.564;6.990;2024-02-14T01:23:23;1.20;;;0.40;;
3175;SDS011;1599;51.564;6.990;2024-02-14T01:25:49;1.20;;;0.40;;
3175;SDS011;1599;51.564;6.990;2024-02-14T01:28:15;1.20;;;0.40;;
3175;SDS011;1599;51.564;6.990;2024-02-14T01:30:42;1.20;;;0.40;;
3175;SDS011;1599;51.564;6.990;2024-02-14T01:33:08;1.40;;;0.80;;
3175;SDS011;1599;51.564;6.990;2024-02-14T01:35:34;1.20;;;0.40;;
3175;SDS011;1599;51.564;6.990;2024-02-14T01:38:00;1.20;;;0.40;;
3175;SDS011;1599;51.564;6.990;2024-02-14T01:40:28;1.20;;;0.40;;
3175;SDS011;1599;51.564;6.990;2024-02-14T01:42:54;1.30;;;0.80;;
3175;SDS011;1599;51.564;6.990;2024-02-14T01:45:20;1.20;;;0.40;;
3175;SDS011;1599;51.564;6.990;2024-02-14T01:47:46;1.20;;;0.40;;
3175;SDS011;1599;51.564;6.990;2024-02-14T01:50:15;1.20;;;0.60;;
3175;SDS011;1599;51.564;6.990;2024-02-14T01:52:41;1.17;;;0.40;;
3175;SDS011;1599;51.564;6.990;2024-02-14T01:55:09;1.20;;;0.43;;
3175;SDS011;1599;51.564;6.990;2024-02-14T01:57:36;1.23;;;0.70;;
3175;SDS011;1599;51.564;6.990;2024-02-14T02:00:06;1.20;;;0.40;;
3175;SDS011;1599;51.564;6.990;2024-02-14T02:02:42;1.20;;;0.40;;
3175;SDS011;1599;51.564;6.990;2024-02-14T02:05:09;1.20;;;0.40;;
3175;SDS011;1599;51.564;6.990;2024-02-14T02:07:35;1.20;;;0.40;;
3175;SDS011;1599;51.564;6.990;2024-02-14T02:10:04;1.20;;;0.40;;
3175;SDS011;1599;51.564;6.990;2024-02-14T02:12:31;1.20;;;0.40;;
3175;SDS011;1599;51.564;6.990;2024-02-14T02:14:57;1.20;;;0.50;;
3175;SDS011;1599;51.564;6.990;2024-02-14T02:17:23;1.20;;;0.40;;
3175;SDS011;1599;51.564;6.990;2024-02-14T02:19:49;1.20;;;0.40;;
3175;SDS011;1599;51.564;6.990;2024-02-14T02:22:18;1.20;;;0.40;;
3175;SDS011;1599;51.564;6.990;2024-02-14T02:24:43;1.20;;;0.40;;
3175;SDS011;1599;51.564;6.990;2024-02-14T02:27:10;1.20;;;0.40;;
3175;SDS011;1599;51.564;6.990;2024-02-14T02:29:38;1.20;;;0.40;;
3175;SDS011;1599;51.564;6.990;2024-02-14T02:32:04;1.20;;;0.40;;
3175;SDS011;1599;51.564;6.990;2024-02-14T02:34:31;1.20;;;0.40;;
3175;SDS011;1599;51.564;6.990;2024-02-14T02:36:57;2.70;;;0.60;;
3175;SDS011;1599;51.564;6.990;2024-02-14T02:39:22;1.20;;;0.40;;
3175;SDS011;1599;51.564;6.990;2024-02-14T02:41:48;1.20;;;0.40;;
3175;SDS011;1599;51.564;6.990;2024-02-14T02:44:15;1.20;;;0.40;;
3175;SDS011;1599;51.564;6.990;2024-02-14T02:46:40;1.10;;;0.40;;
3175;SDS011;1599;51.564;6.990;2024-02-14T02:49:06;1.67;;;0.40;;
3175;SDS011;1599;51.564;6.990;2024-02-14T02:51:32;1.90;;;0.50;;
3175;SDS011;1599;51.564;6.990;2024-02-14T02:53:58;2.30;;;0.50;;
3175;SDS011;1599;51.564;6.990;2024-02-14T02:56:23;2.60;;;0.50;;
3175;SDS011;1599;51.564;6.990;2024-02-14T02:58:52;3.07;;;0.50;;
3175;SDS011;1599;51.564;6.990;2024-02-14T03:01:20;3.50;;;0.50;;
3175;SDS011;1599;51.564;6.990;2024-02-14T03:03:48;4.70;;;0.70;;
3175;SDS011;1599;51.564;6.990;2024-02-14T03:06:14;5.20;;;0.50;;
3175;SDS011;1599;51.564;6.990;2024-02-14T03:08:40;5.77;;;0.50;;
3175;SDS011;1599;51.564;6.990;2024-02-14T03:11:06;6.70;;;0.60;;
3175;SDS011;1599;51.564;6.990;2024-02-14T03:13:32;7.10;;;0.60;;
3175;SDS011;1599;51.564;6.990;2024-02-14T03:15:58;8.97;;;0.60;;
3175;SDS011;1599;51.564;6.990;2024-02-14T03:18:24;9.23;;;0.60;;
3175;SDS011;1599;51.564;6.990;2024-02-14T03:20:50;9.33;;;0.60;;
3175;SDS011;1599;51.564;6.990;2024-02-14T03:23:17;9.73;;;0.60;;
3175;SDS011;1599;51.564;6.990;2024-02-14T03:25:43;9.87;;;0.60;;
3175;SDS011;1599;51.564;6.990;2024-02-14T03:28:09;10.07;;;0.70;;
3175;SDS011;1599;51.564;6.990;2024-02-14T03:30:35;10.43;;;0.60;;
3175;SDS011;1599;51.564;6.990;2024-02-14T03:33:02;10.47;;;0.60;;
3175;SDS011;1599;51.564;6.990;2024-02-14T03:35:28;10.97;;;0.60;;
3175;SDS011;1599;51.564;6.990;2024-02-14T03:37:53;11.23;;;0.60;;
3175;SDS011;1599;51.564;6.990;2024-02-14T03:40:19;11.57;;;0.60;;
3175;SDS011;1599;51.564;6.990;2024-02-14T03:42:49;11.77;;;0.60;;
3175;SDS011;1599;51.564;6.990;2024-02-14T03:45:14;11.93;;;0.60;;
3175;SDS011;1599;51.564;6.990;2024-02-14T03:47:40;12.07;;;0.60;;
3175;SDS011;1599;51.564;6.990;2024-02-14T03:50:07;12.43;;;0.60;;
3175;SDS011;1599;51.564;6.990;2024-02-14T03:52:33;12.77;;;0.60;;
3175;SDS011;1599;51.564;6.990;2024-02-14T03:54:59;12.63;;;0.60;;
3175;SDS011;1599;51.564;6.990;2024-02-14T03:57:26;12.67;;;0.60;;
3175;SDS011;1599;51.564;6.990;2024-02-14T03:59:54;13.17;;;0.60;;
3175;SDS011;1599;51.564;6.990;2024-02-14T04:02:21;13.30;;;0.60;;
3175;SDS011;1599;51.564;6.990;2024-02-14T04:04:48;1.10;;;0.40;;
3175;SDS011;1599;51.564;6.990;2024-02-14T04:07:14;1.20;;;0.40;;
3175;SDS011;1599;51.564;6.990;2024-02-14T04:09:40;1.30;;;0.40;;
3175;SDS011;1599;51.564;6.990;2024-02-14T04:12:06;1.40;;;0.40;;
3175;SDS011;1599;51.564;6.990;2024-02-14T04:14:32;1.50;;;0.40;;
3175;SDS011;1599;51.564;6.990;2024-02-14T04:16:57;1.50;;;0.40;;
3175;SDS011;1599;51.564;6.990;2024-02-14T04:19:23;1.60;;;0.50;;
3175;SDS011;1599;51.564;6.990;2024-02-14T04:21:49;1.70;;;0.50;;
3175;SDS011;1599;51.564;6.990;2024-02-14T04:24:15;2.00;;;0.50;;
3175;SDS011;1599;51.564;6.990;2024-02-14T04:26:41;2.40;;;0.70;;
3175;SDS011;1599;51.564;6.990;2024-02-14T04:29:07;2.80;;;0.50;;
3175;SDS011;1599;51.564;6.990;2024-02-14T04:31:33;0.90;;;0.40;;
3175;SDS011;1599;51.564;6.990;2024-02-14T04:33:59;0.90;;;0.40;;
3175;SDS011;1599;51.564;6.990;2024-02-14T04:36:25;1.00;;;0.40;;
3175;SDS011;1599;51.564;6.990;2024-02-14T04:38:52;1.00;;;0.40;;
3175;SDS011;1599;51.564;6.990;2024-02-14T04:41:18;1.00;;;0.40;;
3175;SDS011;1599;51.564;6.990;2024-02-14T04:43:44;1.00;;;0.40;;
3175;SDS011;1599;51.564;6.990;2024-02-14T04:46:10;1.00;;;0.40;;
3175;SDS011;1599;51.564;6.990;2024-02-14T04:48:36;1.00;;;0.40;;
3175;SDS011;1599;51.564;6.990;2024-02-14T04:51:02;1.00;;;0.40;;
3175;SDS011;1599;51.564;6.990;2024-02-14T04:53:32;1.00;;;0.40;;
3175;SDS011;1599;51.564;6.990;2024-02-14T04:55:57;1.00;;;0.40;;
3175;SDS011;1599;51.564;6.990;2024-02-14T04:58:23;1.00;;;0.40;;
3175;SDS011;1599;51.564;6.990;2024-02-14T05:00:49;1.00;;;0.40;;
3175;SDS011;1599;51.564;6.990;2024-02-14T05:03:15;1.00;;;0.40;;
3175;SDS011;1599;51.564;6.990;2024-02-14T05:05:41;1.00;;;0.40;;
3175;SDS011;1599;51.564;6.990;2024-02-14T05:08:07;1.00;;;0.40;;
3175;SDS011;1599;51.564;6.990;2024-02-14T05:10:32;1.00;;;0.40;;
3175;SDS011;1599;51.564;6.990;2024-02-14T05:12:58;1.00;;;0.40;;
3175;SDS011;1599;51.564;6.990;2024-02-14T05:15:24;1.00;;;0.40;;
3175;SDS011;1599;51.564;6.990;2024-02-14T05:17:50;1.00;;;0.40;;
3175;SDS011;1599;51.564;6.990;2024-02-14T05:20:16;1.10;;;0.40;;
3175;SDS011;1599;51.564;6.990;2024-02-14T05:22:43;2.13;;;0.50;;
3175;SDS011;1599;51.564;6.990;2024-02-14T05:25:09;2.40;;;0.50;;
3175;SDS011;1599;51.564;6.990;2024-02-14T05:27:35;2.37;;;0.50;;
3175;SDS011;1599;51.564;6.990;2024-02-14T05:30:02;2.33;;;0.50;;
3175;SDS011;1599;51.564;6.990;2024-02-14T05:32:30;2.30;;;0.50;;
3175;SDS011;1599;51.564;6.990;2024-02-14T05:34:57;2.27;;;0.50;;
3175;SDS011;1599;51.564;6.990;2024-02-14T05:37:23;2.40;;;0.50;;
3175;SDS011;1599;51.564;6.990;2024-02-14T05:39:49;2.40;;;0.50;;
3175;SDS011;1599;51.564;6.990;2024-02-14T05:42:16;2.40;;;0.50;;
3175;SDS011;1599;51.564;6.990;2024-02-14T05:44:42;2.40;;;0.50;;
3175;SDS011;1599;51.564;6.990;2024-02-14T05:47:08;2.60;;;0.50;;
3175;SDS011;1599;51.564;6.990;2024-02-14T05:49:35;2.70;;;0.60;;
3175;SDS011;1599;51.564;6.990;2024-02-14T05:52:00;2.70;;;0.50;;
3175;SDS011;1599;51.564;6.990;2024-02-14T05:54:26;2.77;;;0.50;;
3175;SDS011;1599;51.564;6.990;2024-02-14T05:56:52;2.80;;;0.50;;
3175;SDS011;1599;51.564;6.990;2024-02-14T05:59:18;2.83;;;0.50;;
3175;SDS011;1599;51.564;6.990;2024-02-14T06:01:43;2.93;;;0.50;;
3175;SDS011;1599;51.564;6.990;2024-02-14T06:04:09;3.00;;;0.50;;
3175;SDS011;1599;51.564;6.990;2024-02-14T06:06:35;2.90;;;0.50;;
3175;SDS011;1599;51.564;6.990;2024-02-14T06:09:00;2.83;;;0.50;;
3175;SDS011;1599;51.564;6.990;2024-02-14T06:11:27;2.80;;;0.50;;
3175;SDS011;1599;51.564;6.990;2024-02-14T06:13:53;2.90;;;0.50;;
3175;SDS011;1599;51.564;6.990;2024-02-14T06:16:19;2.77;;;0.50;;
3175;SDS011;1599;51.564;6.990;2024-02-14T06:18:44;2.80;;;0.50;;
3175;SDS011;1599;51.564;6.990;2024-02-14T06:21:10;2.90;;;0.50;;
3175;SDS011;1599;51.564;6.990;2024-02-14T06:23:36;2.90;;;0.50;;
3175;SDS011;1599;51.564;6.990;2024-02-14T06:26:03;2.90;;;0.50;;
3175;SDS011;1599;51.564;6.990;2024-02-14T06:28:29;3.00;;;0.50;;
3175;SDS011;1599;51.564;6.990;2024-02-14T06:30:55;1.83;;;0.50;;
3175;SDS011;1599;51.564;6.990;2024-02-14T06:33:21;1.90;;;0.50;;
3175;SDS011;1599;51.564;6.990;2024-02-14T06:35:47;1.90;;;0.43;;
3175;SDS011;1599;51.564;6.990;2024-02-14T06:38:12;3.40;;;0.50;;
3175;SDS011;1599;51.564;6.990;2024-02-14T06:40:38;3.40;;;0.50;;
3175;SDS011;1599;51.564;6.990;2024-02-14T06:43:05;3.40;;;0.50;;
3175;SDS011;1599;51.564;6.990;2024-02-14T06:45:35;3.30;;;0.50;;
3175;SDS011;1599;51.564;6.990;2024-02-14T06:48:07;3.27;;;0.50;;
3175;SDS011;1599;51.564;6.990;2024-02-14T06:50:38;3.20;;;0.50;;
3175;SDS011;1599;51.564;6.990;2024-02-14T06:53:06;3.13;;;0.50;;
3175;SDS011;1599;51.564;6.990;2024-02-14T06:55:32;3.20;;;0.50;;
3175;SDS011;1599;51.564;6.990;2024-02-14T06:57:59;3.20;;;0.50;;
3175;SDS011;1599;51.564;6.990;2024-02-14T07:00:24;3.13;;;0.50;;
3175;SDS011;1599;51.564;6.990;2024-02-14T07:02:50;3.10;;;0.50;;
3175;SDS011;1599;51.564;6.990;2024-02-14T07:05:16;3.10;;;0.50;;
3175;SDS011;1599;51.564;6.990;2024-02-14T07:07:42;3.10;;;0.50;;
3175;SDS011;1599;51.564;6.990;2024-02-14T07:10:08;3.07;;;0.50;;
3175;SDS011;1599;51.564;6.990;2024-02-14T07:12:34;3.00;;;0.50;;
3175;SDS011;1599;51.564;6.990;2024-02-14T07:15:06;3.00;;;0.50;;
3175;SDS011;1599;51.564;6.990;2024-02-14T07:17:33;3.00;;;0.50;;
3175;SDS011;1599;51.564;6.990;2024-02-14T07:19:59;3.00;;;0.50;;
3175;SDS011;1599;51.564;6.990;2024-02-14T07:22:25;3.00;;;0.50;;
3175;SDS011;1599;51.564;6.990;2024-02-14T07:24:53;3.00;;;0.50;;
3175;SDS011;1599;51.564;6.990;2024-02-14T07:27:22;3.00;;;0.50;;
3175;SDS011;1599;51.564;6.990;2024-02-14T07:29:49;2.97;;;0.50;;
3175;SDS011;1599;51.564;6.990;2024-02-14T07:32:15;2.90;;;0.50;;
3175;SDS011;1599;51.564;6.990;2024-02-14T07:34:43;2.90;;;0.50;;
3175;SDS011;1599;51.564;6.990;2024-02-14T07:37:16;2.90;;;0.50;;
